Time;durP1;ratioP1;P1;durP2;ratioP2;P2;SDS_P1;SDS_P2;PMS_P1;PMS_P2;Temp;Humidity;BMP_temperature;BMP_pressure;BME280_temperature;BME280_humidity;BME280_pressure;Samples;Min_cycle;Max_cycle;Signal;HPM_P1;HPM_P2
2024/03/30 00:01:10;;;;;;;;;;;;;;;;;;106618;1251;62041;-78
2024/03/30 00:03:42;;;;;;;;;;;;;;;;;;106583;1254;62837;-81
2024/03/30 00:06:09;;;;;;;;;;;;;;;;;;106678;1251;62074;-78
2024/03/30 00:08:35;;;;;;;;;;;;;;;;;;106636;1254;61884;-79
2024/03/30 00:11:01;;;;;;;;;;;;;;;;;;107200;1253;62207;-78
2024/03/30 00:13:27;;;;;;;;;;;;;;;;;;106612;1251;62167;-78
2024/03/30 00:15:53;;;;;;;;;;;;;;;;;;106597;1254;62071;-79
2024/03/30 00:18:19;;;;;;;;;;;;;;;;;;106613;1251;63059;-78
2024/03/30 00:20:46;;;;;;;;;;;;;;;;;;106550;1254;62272;-78
2024/03/30 00:23:12;;;;;;;;;;;;;;;;;;106509;1251;62070;-78
2024/03/30 00:25:38;;;;;;;;;;;;;;;;;;106546;1253;62062;-80
2024/03/30 00:28:04;;;;;;;;;;;;;;;;;;106621;1250;62074;-78
2024/03/30 00:30:35;;;;;;;;;;;;;;;;;;106598;1251;62016;-81
2024/03/30 00:33:01;;;;;;;;;;;;;;;;;;107199;1254;62080;-81
2024/03/30 00:35:27;;;;;;;;;;;;;;;;;;107192;1251;61950;-78
2024/03/30 00:37:54;;;;;;;;;;;;;;;;;;106579;1251;62077;-80
2024/03/30 00:40:21;;;;;;;;;;;;;;;;;;107262;1253;62090;-78
2024/03/30 00:42:47;;;;;;;;;;;;;;;;;;106564;1254;62025;-78
2024/03/30 00:45:13;;;;;;;;;;;;;;;;;;106594;1251;61950;-80
2024/03/30 00:47:39;;;;;;;;;;;;;;;;;;107177;1251;62108;-79
2024/03/30 00:50:05;;;;;;;;;;;;;;;;;;106613;1251;62113;-80
2024/03/30 00:52:32;;;;;;;;;;;;;;;;;;106562;1251;62041;-78
2024/03/30 00:54:58;;;;;;;;;;;;;;;;;;106560;1252;62201;-80
2024/03/30 00:57:24;;;;;;;;;;;;;;;;;;107198;1251;62134;-80
2024/03/30 00:59:50;;;;;;;;;;;;;;;;;;107197;1249;62577;-78
2024/03/30 01:02:16;;;;;;;;;;;;;;;;;;107194;1250;62154;-78
2024/03/30 01:04:42;;;;;;;;;;;;;;;;;;107193;1251;62067;-81
2024/03/30 01:07:09;;;;;;;;;;;;;;;;;;107124;1253;62096;-80
2024/03/30 01:09:35;;;;;;;;;;;;;;;;;;107269;1254;61955;-78
2024/03/30 01:12:01;;;;;;;;;;;;;;;;;;106582;1251;62074;-80
2024/03/30 01:14:27;;;;;;;;;;;;;;;;;;106646;1251;62134;-78
2024/03/30 01:16:53;;;;;;;;;;;;;;;;;;106570;1250;63143;-81
2024/03/30 01:19:19;;;;;;;;;;;;;;;;;;107217;1250;62229;-78
2024/03/30 01:21:46;;;;;;;;;;;;;;;;;;107191;1251;62105;-82
2024/03/30 01:24:12;;;;;;;;;;;;;;;;;;107251;1250;62065;-80
2024/03/30 01:26:38;;;;;;;;;;;;;;;;;;107223;1251;62483;-79
2024/03/30 01:29:04;;;;;;;;;;;;;;;;;;107291;1253;62236;-80
2024/03/30 01:31:30;;;;;;;;;;;;;;;;;;107231;1253;62069;-81
2024/03/30 01:33:56;;;;;;;;;;;;;;;;;;107301;1249;62028;-80
2024/03/30 01:36:22;;;;;;;;;;;;;;;;;;107237;1250;62146;-80
2024/03/30 01:38:49;;;;;;;;;;;;;;;;;;107223;1250;63263;-79
2024/03/30 01:41:15;;;;;;;;;;;;;;;;;;107258;1253;62138;-78
2024/03/30 01:43:41;;;;;;;;;;;;;;;;;;107181;1250;62051;-81
2024/03/30 01:46:07;;;;;;;;;;;;;;;;;;107215;1251;62070;-81
2024/03/30 01:48:33;;;;;;;;;;;;;;;;;;107219;1250;62195;-81
2024/03/30 01:50:59;;;;;;;;;;;;;;;;;;107185;1251;62249;-81
2024/03/30 01:53:26;;;;;;;;;;;;;;;;;;107200;1253;62162;-79
2024/03/30 01:55:52;;;;;;;;;;;;;;;;;;106549;1254;62154;-78
2024/03/30 01:58:18;;;;;;;;;;;;;;;;;;106621;1254;62257;-79
2024/03/30 02:00:44;;;;;;;;;;;;;;;;;;106632;1251;62035;-79
2024/03/30 02:03:10;;;;;;;;;;;;;;;;;;106623;1254;62099;-78
2024/03/30 02:05:36;;;;;;;;;;;;;;;;;;106582;1251;62033;-80
2024/03/30 02:08:03;;;;;;;;;;;;;;;;;;106599;1253;62616;-78
2024/03/30 02:10:29;;;;;;;;;;;;;;;;;;106603;1251;62143;-78
2024/03/30 02:12:55;;;;;;;;;;;;;;;;;;106578;1251;62262;-78
2024/03/30 02:15:22;;;;;;;;;;;;;;;;;;106597;1250;62140;-81
2024/03/30 02:17:48;;;;;;;;;;;;;;;;;;107247;1253;62075;-79
2024/03/30 02:20:14;;;;;;;;;;;;;;;;;;107128;1253;62160;-78
2024/03/30 02:22:40;;;;;;;;;;;;;;;;;;106596;1254;62066;-81
2024/03/30 02:25:06;;;;;;;;;;;;;;;;;;107090;1250;60342;-81
2024/03/30 02:27:32;;;;;;;;;;;;;;;;;;107092;1254;62144;-81
2024/03/30 02:29:58;;;;;;;;;;;;;;;;;;107069;1251;60123;-78
2024/03/30 02:32:24;;;;;;;;;;;;;;;;;;106589;1251;62188;-81
2024/03/30 02:34:51;;;;;;;;;;;;;;;;;;107111;1251;62176;-78
2024/03/30 02:37:17;;;;;;;;;;;;;;;;;;106757;1251;62133;-78
2024/03/30 02:39:43;;;;;;;;;;;;;;;;;;106627;1254;62077;-79
2024/03/30 02:42:09;;;;;;;;;;;;;;;;;;106533;1251;62212;-81
2024/03/30 02:44:35;;;;;;;;;;;;;;;;;;106566;1254;62090;-80
2024/03/30 02:47:01;;;;;;;;;;;;;;;;;;106526;1251;62153;-81
2024/03/30 02:49:28;;;;;;;;;;;;;;;;;;107163;1251;62031;-80
2024/03/30 02:51:54;;;;;;;;;;;;;;;;;;107098;1254;62518;-80
2024/03/30 02:54:20;;;;;;;;;;;;;;;;;;107114;1251;62108;-80
2024/03/30 02:56:46;;;;;;;;;;;;;;;;;;107169;1250;61627;-78
2024/03/30 02:59:12;;;;;;;;;;;;;;;;;;107211;1253;62969;-78
2024/03/30 03:01:38;;;;;;;;;;;;;;;;;;106594;1254;62193;-80
2024/03/30 03:04:05;;;;;;;;;;;;;;;;;;107189;1250;63918;-78
2024/03/30 03:06:31;;;;;;;;;;;;;;;;;;106650;1253;62042;-80
2024/03/30 03:08:57;;;;;;;;;;;;;;;;;;107203;1250;62074;-81
2024/03/30 03:11:23;;;;;;;;;;;;;;;;;;107202;1250;62074;-78
2024/03/30 03:13:50;;;;;;;;;;;;;;;;;;107344;1249;62019;-79
2024/03/30 03:16:16;;;;;;;;;;;;;;;;;;107311;1250;62199;-78
2024/03/30 03:18:42;;;;;;;;;;;;;;;;;;106862;1251;62073;-78
2024/03/30 03:21:08;;;;;;;;;;;;;;;;;;106729;1249;62034;-80
2024/03/30 03:23:34;;;;;;;;;;;;;;;;;;106576;1250;62154;-80
2024/03/30 03:26:00;;;;;;;;;;;;;;;;;;106572;1250;62186;-78
2024/03/30 03:28:27;;;;;;;;;;;;;;;;;;107770;1249;61850;-80
2024/03/30 03:30:53;;;;;;;;;;;;;;;;;;107347;1251;62124;-80
2024/03/30 03:33:19;;;;;;;;;;;;;;;;;;107679;1250;62772;-80
2024/03/30 03:35:45;;;;;;;;;;;;;;;;;;107167;1254;62022;-81
2024/03/30 03:38:11;;;;;;;;;;;;;;;;;;107158;1251;62029;-81
2024/03/30 03:40:37;;;;;;;;;;;;;;;;;;107204;1250;62109;-81
2024/03/30 03:43:03;;;;;;;;;;;;;;;;;;107216;1250;62128;-78
2024/03/30 03:45:30;;;;;;;;;;;;;;;;;;106571;1253;62492;-78
2024/03/30 03:47:56;;;;;;;;;;;;;;;;;;106616;1253;62041;-79
2024/03/30 03:50:22;;;;;;;;;;;;;;;;;;106632;1251;62154;-80
2024/03/30 03:52:48;;;;;;;;;;;;;;;;;;106644;1250;62159;-78
2024/03/30 03:55:14;;;;;;;;;;;;;;;;;;106687;1250;62159;-80
2024/03/30 03:57:40;;;;;;;;;;;;;;;;;;107200;1249;62138;-79
2024/03/30 04:00:07;;;;;;;;;;;;;;;;;;106642;1250;61992;-78
2024/03/30 04:02:33;;;;;;;;;;;;;;;;;;106581;1254;61961;-78
2024/03/30 04:04:59;;;;;;;;;;;;;;;;;;106615;1254;62202;-81
2024/03/30 04:07:25;;;;;;;;;;;;;;;;;;106560;1251;62173;-81
2024/03/30 04:09:51;;;;;;;;;;;;;;;;;;107125;1250;59949;-78
2024/03/30 04:12:18;;;;;;;;;;;;;;;;;;106583;1249;62154;-78
2024/03/30 04:14:44;;;;;;;;;;;;;;;;;;106682;1250;62263;-79
2024/03/30 04:17:10;;;;;;;;;;;;;;;;;;108271;1250;62256;-79
2024/03/30 04:19:37;;;;;;;;;;;;;;;;;;106588;1250;62211;-79
2024/03/30 04:22:03;;;;;;;;;;;;;;;;;;106578;1250;62119;-78
2024/03/30 04:24:30;;;;;;;;;;;;;;;;;;108857;1249;60729;-81
2024/03/30 04:26:56;;;;;;;;;;;;;;;;;;109680;1249;59635;-79
2024/03/30 04:29:22;;;;;;;;;;;;;;;;;;109641;1250;59673;-81
2024/03/30 04:31:48;;;;;;;;;;;;;;;;;;107827;1249;62054;-81
2024/03/30 04:34:14;;;;;;;;;;;;;;;;;;107160;1249;62137;-80
2024/03/30 04:36:41;;;;;;;;;;;;;;;;;;107204;1253;62224;-78
2024/03/30 04:39:07;;;;;;;;;;;;;;;;;;106582;1249;62092;-79
2024/03/30 04:41:34;;;;;;;;;;;;;;;;;;106541;1250;62150;-80
2024/03/30 04:44:00;;;;;;;;;;;;;;;;;;106600;1250;62095;-79
2024/03/30 04:46:26;;;;;;;;;;;;;;;;;;106583;1253;63101;-81
2024/03/30 04:48:52;;;;;;;;;;;;;;;;;;107145;1249;62009;-80
2024/03/30 04:51:18;;;;;;;;;;;;;;;;;;107177;1253;62165;-81
2024/03/30 04:53:44;;;;;;;;;;;;;;;;;;107419;1250;62146;-81
2024/03/30 04:56:11;;;;;;;;;;;;;;;;;;107223;1251;60593;-81
2024/03/30 04:58:37;;;;;;;;;;;;;;;;;;107233;1250;62137;-78
2024/03/30 05:01:03;;;;;;;;;;;;;;;;;;107258;1250;62074;-80
2024/03/30 05:03:29;;;;;;;;;;;;;;;;;;107359;1250;62032;-78
2024/03/30 05:05:55;;;;;;;;;;;;;;;;;;107250;1251;61990;-79
2024/03/30 05:08:21;;;;;;;;;;;;;;;;;;106613;1250;62508;-78
2024/03/30 05:10:48;;;;;;;;;;;;;;;;;;106599;1253;62066;-81
2024/03/30 05:13:15;;;;;;;;;;;;;;;;;;106711;1250;62240;-78
2024/03/30 05:15:41;;;;;;;;;;;;;;;;;;106546;1249;61997;-81
2024/03/30 05:18:08;;;;;;;;;;;;;;;;;;107289;1250;62036;-79
2024/03/30 05:20:49;;;;;;;;;;;;;;;;;;107230;1250;62141;-79
2024/03/30 05:23:15;;;;;;;;;;;;;;;;;;107204;1250;64152;-81
2024/03/30 05:25:41;;;;;;;;;;;;;;;;;;107169;1250;62151;-80
2024/03/30 05:28:08;;;;;;;;;;;;;;;;;;107194;1250;60446;-80
2024/03/30 05:30:35;;;;;;;;;;;;;;;;;;107253;1251;62032;-80
2024/03/30 05:33:01;;;;;;;;;;;;;;;;;;107186;1253;62150;-78
2024/03/30 05:35:27;;;;;;;;;;;;;;;;;;107235;1250;62067;-81
2024/03/30 05:37:53;;;;;;;;;;;;;;;;;;107208;1250;62182;-79
2024/03/30 05:40:19;;;;;;;;;;;;;;;;;;107192;1249;62029;-81
2024/03/30 05:42:45;;;;;;;;;;;;;;;;;;107191;1249;61984;-78
2024/03/30 05:45:11;;;;;;;;;;;;;;;;;;106597;1250;62079;-79
2024/03/30 05:47:38;;;;;;;;;;;;;;;;;;106606;1250;62155;-80
2024/03/30 05:50:04;;;;;;;;;;;;;;;;;;107275;1250;62073;-78
2024/03/30 05:52:30;;;;;;;;;;;;;;;;;;106615;1250;62069;-79
2024/03/30 05:54:56;;;;;;;;;;;;;;;;;;106580;1254;62083;-81
2024/03/30 05:57:22;;;;;;;;;;;;;;;;;;107204;1250;61063;-81
2024/03/30 05:59:48;;;;;;;;;;;;;;;;;;107195;1250;62177;-79
2024/03/30 06:02:15;;;;;;;;;;;;;;;;;;107161;1253;62104;-79
2024/03/30 06:04:41;;;;;;;;;;;;;;;;;;107158;1250;62167;-79
2024/03/30 06:07:10;;;;;;;;;;;;;;;;;;107515;1250;62038;-79
2024/03/30 06:09:36;;;;;;;;;;;;;;;;;;109537;1249;211455;-79
2024/03/30 06:12:02;;;;;;;;;;;;;;;;;;109658;1249;59737;-79
2024/03/30 06:14:28;;;;;;;;;;;;;;;;;;109649;1250;59891;-81
2024/03/30 06:16:55;;;;;;;;;;;;;;;;;;109674;1249;59755;-81
2024/03/30 06:19:21;;;;;;;;;;;;;;;;;;109662;1249;59775;-79
2024/03/30 06:21:47;;;;;;;;;;;;;;;;;;109666;1249;59886;-82
2024/03/30 06:24:13;;;;;;;;;;;;;;;;;;109668;1249;59944;-81
2024/03/30 06:26:39;;;;;;;;;;;;;;;;;;109646;1250;59659;-80
2024/03/30 06:29:06;;;;;;;;;;;;;;;;;;109477;1249;59682;-81
2024/03/30 06:31:32;;;;;;;;;;;;;;;;;;107211;1249;62192;-79
2024/03/30 06:33:59;;;;;;;;;;;;;;;;;;107202;1253;62142;-79
2024/03/30 06:36:25;;;;;;;;;;;;;;;;;;106634;1250;62182;-79
2024/03/30 06:38:51;;;;;;;;;;;;;;;;;;109668;1249;59689;-79
2024/03/30 06:44:02;;;;;;;;;;;;;;;;;;109633;1249;63455;-79
2024/03/30 06:46:28;;;;;;;;;;;;;;;;;;109697;1249;59615;-81
2024/03/30 06:48:54;;;;;;;;;;;;;;;;;;109648;1249;59794;-80
2024/03/30 06:51:20;;;;;;;;;;;;;;;;;;109631;1249;59647;-80
2024/03/30 06:53:48;;;;;;;;;;;;;;;;;;109664;1249;59881;-82
2024/03/30 06:56:14;;;;;;;;;;;;;;;;;;109666;1249;59887;-80
2024/03/30 06:58:40;;;;;;;;;;;;;;;;;;109658;1249;59626;-80
2024/03/30 07:01:08;;;;;;;;;;;;;;;;;;109687;1249;59591;-80
2024/03/30 07:03:35;;;;;;;;;;;;;;;;;;107253;1250;61995;-80
2024/03/30 07:06:01;;;;;;;;;;;;;;;;;;107211;1250;62137;-80
2024/03/30 07:08:27;;;;;;;;;;;;;;;;;;107210;1254;61821;-81
2024/03/30 07:10:53;;;;;;;;;;;;;;;;;;107174;1253;62801;-80
2024/03/30 07:13:19;;;;;;;;;;;;;;;;;;107249;1254;62136;-81
2024/03/30 07:15:45;;;;;;;;;;;;;;;;;;107195;1250;62052;-80
2024/03/30 07:18:12;;;;;;;;;;;;;;;;;;107179;1250;62914;-81
2024/03/30 07:20:38;;;;;;;;;;;;;;;;;;107192;1253;62093;-82
2024/03/30 07:23:04;;;;;;;;;;;;;;;;;;107151;1254;62150;-80
2024/03/30 07:25:30;;;;;;;;;;;;;;;;;;107173;1250;62084;-78
2024/03/30 07:27:56;;;;;;;;;;;;;;;;;;106632;1249;63173;-80
2024/03/30 07:30:22;;;;;;;;;;;;;;;;;;106568;1249;62666;-78
2024/03/30 07:32:48;;;;;;;;;;;;;;;;;;107523;1250;62037;-79
2024/03/30 07:35:15;;;;;;;;;;;;;;;;;;109686;1249;60109;-80
2024/03/30 07:37:41;;;;;;;;;;;;;;;;;;109664;1249;59627;-80
2024/03/30 07:40:07;;;;;;;;;;;;;;;;;;107810;1249;62012;-78
2024/03/30 07:42:33;;;;;;;;;;;;;;;;;;106577;1251;62084;-80
2024/03/30 07:44:59;;;;;;;;;;;;;;;;;;106539;1250;61965;-80
2024/03/30 07:47:25;;;;;;;;;;;;;;;;;;107202;1250;62581;-78
2024/03/30 07:49:51;;;;;;;;;;;;;;;;;;106501;1250;63488;-80
2024/03/30 07:52:18;;;;;;;;;;;;;;;;;;106581;1251;62161;-80
2024/03/30 07:54:44;;;;;;;;;;;;;;;;;;106547;1250;62078;-78
2024/03/30 07:57:10;;;;;;;;;;;;;;;;;;106620;1250;62066;-78
2024/03/30 07:59:36;;;;;;;;;;;;;;;;;;106612;1254;62016;-79
2024/03/30 08:02:03;;;;;;;;;;;;;;;;;;107428;1250;61927;-80
2024/03/30 08:04:29;;;;;;;;;;;;;;;;;;109671;1249;59833;-80
2024/03/30 08:06:56;;;;;;;;;;;;;;;;;;109694;1250;59835;-81
2024/03/30 08:09:22;;;;;;;;;;;;;;;;;;107851;1250;62043;-81
2024/03/30 08:11:48;;;;;;;;;;;;;;;;;;107257;1254;62054;-79
2024/03/30 08:14:16;;;;;;;;;;;;;;;;;;107437;1250;62361;-83
2024/03/30 08:16:42;;;;;;;;;;;;;;;;;;107321;1250;62691;-82
2024/03/30 08:19:10;;;;;;;;;;;;;;;;;;107328;1254;62024;-81
2024/03/30 08:21:37;;;;;;;;;;;;;;;;;;107314;1252;61248;-80
2024/03/30 08:24:03;;;;;;;;;;;;;;;;;;107202;1250;62134;-81
2024/03/30 08:26:29;;;;;;;;;;;;;;;;;;107207;1249;63631;-80
2024/03/30 08:28:55;;;;;;;;;;;;;;;;;;107204;1250;64211;-79
2024/03/30 08:31:21;;;;;;;;;;;;;;;;;;107156;1254;62065;-81
2024/03/30 08:33:50;;;;;;;;;;;;;;;;;;107222;1250;62111;-80
2024/03/30 08:36:16;;;;;;;;;;;;;;;;;;107188;1250;60638;-80
2024/03/30 08:38:42;;;;;;;;;;;;;;;;;;107194;1251;62084;-81
2024/03/30 08:41:08;;;;;;;;;;;;;;;;;;107339;1248;62128;-79
2024/03/30 08:43:34;;;;;;;;;;;;;;;;;;106830;1248;62092;-82
2024/03/30 08:46:03;;;;;;;;;;;;;;;;;;107386;1249;62150;-81
2024/03/30 08:48:29;;;;;;;;;;;;;;;;;;107480;1251;62584;-81
2024/03/30 08:50:55;;;;;;;;;;;;;;;;;;107385;1253;62508;-81
2024/03/30 08:53:22;;;;;;;;;;;;;;;;;;107343;1250;60030;-81
2024/03/30 08:55:48;;;;;;;;;;;;;;;;;;107330;1248;62070;-81
2024/03/30 08:58:14;;;;;;;;;;;;;;;;;;107295;1250;63188;-81
2024/03/30 09:00:40;;;;;;;;;;;;;;;;;;107231;1253;62082;-81
2024/03/30 09:03:06;;;;;;;;;;;;;;;;;;107369;1253;60720;-81
2024/03/30 09:05:32;;;;;;;;;;;;;;;;;;107431;1252;61957;-81
2024/03/30 09:07:59;;;;;;;;;;;;;;;;;;107413;1248;62076;-82
2024/03/30 09:10:25;;;;;;;;;;;;;;;;;;107261;1253;62169;-82
2024/03/30 09:12:51;;;;;;;;;;;;;;;;;;107322;1248;62581;-81
2024/03/30 09:15:19;;;;;;;;;;;;;;;;;;107442;1250;62147;-82
2024/03/30 09:17:45;;;;;;;;;;;;;;;;;;107167;1253;61971;-81
2024/03/30 09:20:11;;;;;;;;;;;;;;;;;;106861;1253;62477;-81
2024/03/30 09:22:38;;;;;;;;;;;;;;;;;;106829;1251;62150;-79
2024/03/30 09:25:07;;;;;;;;;;;;;;;;;;106867;1250;62065;-80
2024/03/30 09:27:34;;;;;;;;;;;;;;;;;;106935;1248;63556;-81
2024/03/30 09:30:00;;;;;;;;;;;;;;;;;;107039;1252;62031;-79
2024/03/30 09:32:26;;;;;;;;;;;;;;;;;;107070;1248;62035;-80
2024/03/30 09:34:52;;;;;;;;;;;;;;;;;;106861;1250;62089;-80
2024/03/30 09:37:18;;;;;;;;;;;;;;;;;;106818;1250;62140;-81
2024/03/30 09:39:45;;;;;;;;;;;;;;;;;;106948;1250;62153;-79
2024/03/30 09:42:11;;;;;;;;;;;;;;;;;;106979;1248;61923;-80
2024/03/30 09:44:37;;;;;;;;;;;;;;;;;;106896;1253;60007;-81
2024/03/30 09:47:03;;;;;;;;;;;;;;;;;;106890;1250;62064;-81
2024/03/30 09:49:29;;;;;;;;;;;;;;;;;;106764;1253;62138;-81
2024/03/30 09:51:56;;;;;;;;;;;;;;;;;;107061;1248;62166;-80
2024/03/30 09:54:22;;;;;;;;;;;;;;;;;;106824;1250;61927;-81
2024/03/30 09:56:48;;;;;;;;;;;;;;;;;;106815;1254;62080;-81
2024/03/30 09:59:14;;;;;;;;;;;;;;;;;;107101;1251;62159;-81
2024/03/30 10:01:40;;;;;;;;;;;;;;;;;;107024;1254;62140;-81
2024/03/30 10:04:07;;;;;;;;;;;;;;;;;;107120;1251;62089;-81
2024/03/30 10:06:34;;;;;;;;;;;;;;;;;;106987;1249;62154;-81
2024/03/30 10:09:00;;;;;;;;;;;;;;;;;;107041;1248;62032;-81
2024/03/30 10:11:27;;;;;;;;;;;;;;;;;;107205;1248;63285;-79
2024/03/30 10:13:53;;;;;;;;;;;;;;;;;;107175;1254;63158;-80
2024/03/30 10:16:19;;;;;;;;;;;;;;;;;;106939;1248;62146;-79
2024/03/30 10:18:45;;;;;;;;;;;;;;;;;;106886;1251;62157;-81
2024/03/30 10:21:11;;;;;;;;;;;;;;;;;;106819;1256;61451;-79
2024/03/30 10:23:37;;;;;;;;;;;;;;;;;;106814;1254;62609;-81
2024/03/30 10:26:06;;;;;;;;;;;;;;;;;;106809;1255;62145;-81
2024/03/30 10:28:32;;;;;;;;;;;;;;;;;;106772;1250;62045;-79
2024/03/30 10:30:58;;;;;;;;;;;;;;;;;;106857;1250;62971;-81
2024/03/30 10:33:24;;;;;;;;;;;;;;;;;;106839;1250;62109;-80
2024/03/30 10:35:53;;;;;;;;;;;;;;;;;;106813;1250;62152;-82
2024/03/30 10:38:19;;;;;;;;;;;;;;;;;;106850;1253;62783;-82
2024/03/30 10:40:45;;;;;;;;;;;;;;;;;;106831;1253;62516;-82
2024/03/30 10:43:11;;;;;;;;;;;;;;;;;;106896;1250;62028;-80
2024/03/30 10:45:37;;;;;;;;;;;;;;;;;;106838;1250;62043;-80
2024/03/30 10:48:03;;;;;;;;;;;;;;;;;;106792;1250;62113;-82
2024/03/30 10:50:30;;;;;;;;;;;;;;;;;;106802;1250;62061;-82
2024/03/30 10:52:56;;;;;;;;;;;;;;;;;;106833;1254;63475;-81
2024/03/30 10:55:22;;;;;;;;;;;;;;;;;;106849;1255;62054;-79
2024/03/30 10:57:49;;;;;;;;;;;;;;;;;;106794;1255;62163;-80
2024/03/30 11:00:15;;;;;;;;;;;;;;;;;;106849;1251;62147;-81
2024/03/30 11:02:41;;;;;;;;;;;;;;;;;;106867;1250;62028;-82
2024/03/30 11:05:07;;;;;;;;;;;;;;;;;;106847;1250;62108;-79
2024/03/30 11:07:37;;;;;;;;;;;;;;;;;;106349;1250;62138;-80
2024/03/30 11:10:03;;;;;;;;;;;;;;;;;;106734;1250;62029;-80
2024/03/30 11:12:29;;;;;;;;;;;;;;;;;;106767;1250;62131;-80
2024/03/30 11:14:56;;;;;;;;;;;;;;;;;;106782;1254;62143;-81
2024/03/30 11:17:22;;;;;;;;;;;;;;;;;;106897;1250;60424;-80
2024/03/30 11:19:48;;;;;;;;;;;;;;;;;;106801;1250;62172;-82
2024/03/30 11:22:14;;;;;;;;;;;;;;;;;;106872;1253;62021;-81
2024/03/30 11:24:40;;;;;;;;;;;;;;;;;;107068;1253;60154;-82
2024/03/30 11:27:07;;;;;;;;;;;;;;;;;;106850;1254;63148;-80
2024/03/30 11:29:33;;;;;;;;;;;;;;;;;;106830;1250;62066;-81
2024/03/30 11:31:59;;;;;;;;;;;;;;;;;;106844;1250;62096;-80
2024/03/30 11:34:26;;;;;;;;;;;;;;;;;;106824;1253;62087;-80
2024/03/30 11:36:52;;;;;;;;;;;;;;;;;;106935;1250;62012;-80
2024/03/30 11:39:18;;;;;;;;;;;;;;;;;;106908;1254;62833;-82
2024/03/30 11:41:44;;;;;;;;;;;;;;;;;;107005;1253;62026;-81
2024/03/30 11:44:13;;;;;;;;;;;;;;;;;;106970;1254;62021;-82
2024/03/30 11:46:39;;;;;;;;;;;;;;;;;;106859;1255;62705;-81
2024/03/30 11:49:05;;;;;;;;;;;;;;;;;;106885;1250;62925;-80
2024/03/30 11:51:31;;;;;;;;;;;;;;;;;;106979;1253;62129;-81
2024/03/30 11:53:57;;;;;;;;;;;;;;;;;;106893;1252;62542;-80
2024/03/30 11:56:24;;;;;;;;;;;;;;;;;;106890;1250;62085;-80
2024/03/30 11:58:50;;;;;;;;;;;;;;;;;;106998;1253;62184;-80
2024/03/30 12:01:17;;;;;;;;;;;;;;;;;;107064;1254;62019;-81
2024/03/30 12:03:43;;;;;;;;;;;;;;;;;;106869;1248;62120;-80
2024/03/30 12:06:09;;;;;;;;;;;;;;;;;;107204;1252;63120;-81
2024/03/30 12:08:35;;;;;;;;;;;;;;;;;;107405;1248;62022;-81
2024/03/30 12:11:01;;;;;;;;;;;;;;;;;;107150;1253;61815;-80
2024/03/30 12:13:27;;;;;;;;;;;;;;;;;;107147;1253;62150;-79
2024/03/30 12:15:54;;;;;;;;;;;;;;;;;;107109;1248;62117;-81
2024/03/30 12:18:20;;;;;;;;;;;;;;;;;;106980;1250;62215;-81
2024/03/30 12:20:46;;;;;;;;;;;;;;;;;;106822;1250;62848;-80
2024/03/30 12:23:12;;;;;;;;;;;;;;;;;;106797;1255;60215;-81
2024/03/30 12:25:38;;;;;;;;;;;;;;;;;;106732;1250;62165;-81
2024/03/30 12:28:05;;;;;;;;;;;;;;;;;;106790;1253;62237;-79
2024/03/30 12:30:31;;;;;;;;;;;;;;;;;;106806;1250;62097;-80
2024/03/30 12:32:59;;;;;;;;;;;;;;;;;;106798;1250;62019;-81
2024/03/30 12:35:25;;;;;;;;;;;;;;;;;;106816;1250;62040;-82
2024/03/30 12:37:51;;;;;;;;;;;;;;;;;;106837;1250;62172;-80
2024/03/30 12:40:17;;;;;;;;;;;;;;;;;;106808;1250;62080;-81
2024/03/30 12:42:43;;;;;;;;;;;;;;;;;;106858;1250;62823;-82
2024/03/30 12:45:10;;;;;;;;;;;;;;;;;;106880;1251;62044;-81
2024/03/30 12:47:36;;;;;;;;;;;;;;;;;;106913;1254;62236;-81
2024/03/30 12:50:02;;;;;;;;;;;;;;;;;;106853;1254;62167;-81
2024/03/30 12:52:28;;;;;;;;;;;;;;;;;;106873;1250;62096;-79
2024/03/30 12:54:54;;;;;;;;;;;;;;;;;;106837;1255;62136;-80
2024/03/30 12:57:22;;;;;;;;;;;;;;;;;;106904;1255;62137;-79
2024/03/30 12:59:50;;;;;;;;;;;;;;;;;;106972;1255;61984;-81
2024/03/30 13:02:16;;;;;;;;;;;;;;;;;;106875;1250;62481;-79
2024/03/30 13:04:42;;;;;;;;;;;;;;;;;;106843;1250;62141;-80
2024/03/30 13:07:08;;;;;;;;;;;;;;;;;;106869;1250;62038;-80
2024/03/30 13:09:35;;;;;;;;;;;;;;;;;;106760;1255;62161;-80
2024/03/30 13:12:01;;;;;;;;;;;;;;;;;;106852;1254;62120;-81
2024/03/30 13:14:28;;;;;;;;;;;;;;;;;;106899;1250;62147;-81
2024/03/30 13:16:54;;;;;;;;;;;;;;;;;;106889;1250;62159;-79
2024/03/30 13:19:20;;;;;;;;;;;;;;;;;;106888;1249;62007;-80
2024/03/30 13:21:46;;;;;;;;;;;;;;;;;;106903;1250;62156;-80
2024/03/30 13:24:12;;;;;;;;;;;;;;;;;;106896;1250;61962;-79
2024/03/30 13:26:38;;;;;;;;;;;;;;;;;;106950;1256;62151;-80
2024/03/30 13:29:04;;;;;;;;;;;;;;;;;;106774;1253;60592;-80
2024/03/30 13:31:31;;;;;;;;;;;;;;;;;;106818;1255;62114;-80
2024/03/30 13:33:57;;;;;;;;;;;;;;;;;;106835;1253;62137;-81
2024/03/30 13:36:23;;;;;;;;;;;;;;;;;;106802;1260;62164;-79
2024/03/30 13:38:49;;;;;;;;;;;;;;;;;;106803;1250;61935;-80
2024/03/30 13:41:15;;;;;;;;;;;;;;;;;;106809;1250;60525;-81
2024/03/30 13:43:42;;;;;;;;;;;;;;;;;;106801;1250;62082;-78
2024/03/30 13:46:08;;;;;;;;;;;;;;;;;;106428;1251;62151;-79
2024/03/30 13:48:34;;;;;;;;;;;;;;;;;;106347;1256;60700;-80
2024/03/30 13:51:01;;;;;;;;;;;;;;;;;;106745;1251;62026;-81
2024/03/30 13:53:27;;;;;;;;;;;;;;;;;;106827;1250;62157;-79
2024/03/30 13:55:54;;;;;;;;;;;;;;;;;;106937;1249;62130;-80
2024/03/30 13:58:25;;;;;;;;;;;;;;;;;;106960;1251;63419;-79
2024/03/30 14:00:52;;;;;;;;;;;;;;;;;;106883;1251;62040;-80
2024/03/30 14:03:18;;;;;;;;;;;;;;;;;;106893;1249;61974;-80
2024/03/30 14:05:44;;;;;;;;;;;;;;;;;;106872;1252;61922;-79
2024/03/30 14:08:11;;;;;;;;;;;;;;;;;;106884;1253;64191;-80
2024/03/30 14:10:37;;;;;;;;;;;;;;;;;;106860;1251;62149;-80
2024/03/30 14:13:03;;;;;;;;;;;;;;;;;;106890;1253;62230;-79
2024/03/30 14:15:29;;;;;;;;;;;;;;;;;;106931;1251;62223;-79
2024/03/30 14:17:55;;;;;;;;;;;;;;;;;;106429;1250;62032;-79
2024/03/30 14:20:22;;;;;;;;;;;;;;;;;;106417;1251;62150;-81
2024/03/30 14:22:48;;;;;;;;;;;;;;;;;;106918;1252;62233;-79
2024/03/30 14:25:14;;;;;;;;;;;;;;;;;;106409;1256;63079;-79
2024/03/30 14:27:40;;;;;;;;;;;;;;;;;;106487;1251;62074;-79
2024/03/30 14:30:06;;;;;;;;;;;;;;;;;;107202;1252;62146;-80
2024/03/30 14:32:32;;;;;;;;;;;;;;;;;;107238;1250;62116;-81
2024/03/30 14:34:59;;;;;;;;;;;;;;;;;;107167;1254;62236;-81
2024/03/30 14:37:26;;;;;;;;;;;;;;;;;;107245;1253;62503;-79
2024/03/30 14:39:52;;;;;;;;;;;;;;;;;;107222;1250;62021;-80
2024/03/30 14:42:19;;;;;;;;;;;;;;;;;;107205;1250;62147;-81
2024/03/30 14:44:50;;;;;;;;;;;;;;;;;;107207;1253;62687;-81
2024/03/30 14:47:16;;;;;;;;;;;;;;;;;;107220;1254;62154;-79
2024/03/30 14:49:42;;;;;;;;;;;;;;;;;;107200;1254;61933;-79
2024/03/30 14:52:09;;;;;;;;;;;;;;;;;;107200;1250;62252;-79
2024/03/30 14:54:35;;;;;;;;;;;;;;;;;;107161;1250;62073;-79
2024/03/30 14:57:02;;;;;;;;;;;;;;;;;;107112;1250;62028;-79
2024/03/30 14:59:28;;;;;;;;;;;;;;;;;;107173;1250;63122;-81
2024/03/30 15:01:54;;;;;;;;;;;;;;;;;;107206;1252;62217;-79
2024/03/30 15:04:21;;;;;;;;;;;;;;;;;;107169;1254;62066;-80
2024/03/30 15:06:47;;;;;;;;;;;;;;;;;;107165;1251;60571;-79
2024/03/30 15:09:13;;;;;;;;;;;;;;;;;;107234;1251;62144;-79
2024/03/30 15:11:39;;;;;;;;;;;;;;;;;;107261;1251;62162;-80
2024/03/30 15:14:07;;;;;;;;;;;;;;;;;;107246;1251;62767;-81
2024/03/30 15:16:33;;;;;;;;;;;;;;;;;;107288;1252;62546;-81
2024/03/30 15:18:59;;;;;;;;;;;;;;;;;;107205;1254;62147;-79
2024/03/30 15:21:25;;;;;;;;;;;;;;;;;;107198;1250;62154;-80
2024/03/30 15:23:52;;;;;;;;;;;;;;;;;;107171;1251;62038;-79
2024/03/30 15:26:18;;;;;;;;;;;;;;;;;;107191;1253;62016;-79
2024/03/30 15:28:44;;;;;;;;;;;;;;;;;;107178;1256;61982;-79
2024/03/30 15:33:57;;;;;;;;;;;;;;;;;;107164;1251;62285;-80
2024/03/30 15:36:23;;;;;;;;;;;;;;;;;;107229;1251;61956;-79
2024/03/30 15:38:49;;;;;;;;;;;;;;;;;;107160;1256;61952;-79
2024/03/30 15:41:15;;;;;;;;;;;;;;;;;;107178;1254;62132;-80
2024/03/30 15:43:42;;;;;;;;;;;;;;;;;;107110;1251;62158;-79
2024/03/30 15:46:08;;;;;;;;;;;;;;;;;;106567;1254;61959;-80
2024/03/30 15:48:35;;;;;;;;;;;;;;;;;;107206;1251;62066;-79
2024/03/30 15:51:01;;;;;;;;;;;;;;;;;;107157;1253;62152;-80
2024/03/30 15:53:27;;;;;;;;;;;;;;;;;;107205;1251;60116;-79
2024/03/30 15:55:53;;;;;;;;;;;;;;;;;;107174;1254;62026;-80
2024/03/30 15:58:20;;;;;;;;;;;;;;;;;;107203;1257;62070;-79
2024/03/30 16:00:46;;;;;;;;;;;;;;;;;;106599;1251;62503;-80
2024/03/30 16:03:12;;;;;;;;;;;;;;;;;;107166;1254;62073;-80
2024/03/30 16:05:38;;;;;;;;;;;;;;;;;;107197;1254;62097;-79
2024/03/30 16:08:04;;;;;;;;;;;;;;;;;;107150;1255;62077;-80
2024/03/30 16:10:30;;;;;;;;;;;;;;;;;;107200;1261;62095;-80
2024/03/30 16:12:57;;;;;;;;;;;;;;;;;;107176;1251;62067;-80
2024/03/30 16:15:23;;;;;;;;;;;;;;;;;;107213;1251;61910;-80
2024/03/30 16:17:49;;;;;;;;;;;;;;;;;;107215;1253;62067;-79
2024/03/30 16:20:15;;;;;;;;;;;;;;;;;;107193;1252;62067;-79
2024/03/30 16:22:42;;;;;;;;;;;;;;;;;;107212;1253;62128;-79
2024/03/30 16:25:08;;;;;;;;;;;;;;;;;;107163;1255;62054;-78
2024/03/30 16:27:35;;;;;;;;;;;;;;;;;;107159;1251;62088;-81